Time;durP1;ratioP1;P1;durP2;ratioP2;P2;SDS_P1;SDS_P2;PMS_P1;PMS_P2;Temp;Humidity;BMP_temperature;BMP_pressure;BME280_temperature;BME280_humidity;BME280_pressure;Samples;Min_cycle;Max_cycle;Signal;HPM_P1;HPM_P2
2022/10/31 00:00:00;;;;;;;;;25.50;21.75;;;;;17.96;56.32;101504.31;4941724;28;46761;-64
2022/10/31 00:02:26;;;;;;;;;20.00;17.75;;;;;17.96;56.19;101512.28;4940714;28;45833;-64
2022/10/31 00:04:51;;;;;;;;;20.25;18.25;;;;;17.93;56.42;101507.03;4941866;28;45508;-64
2022/10/31 00:07:16;;;;;;;;;21.00;16.50;;;;;17.90;56.37;101513.34;4940480;28;45378;-63
2022/10/31 00:09:42;;;;;;;;;21.50;20.75;;;;;17.87;56.13;101516.97;4941469;28;46150;-64
2022/10/31 00:12:07;;;;;;;;;21.75;19.25;;;;;17.86;56.43;101522.31;4941622;28;47587;-64
2022/10/31 00:14:32;;;;;;;;;20.00;17.75;;;;;17.81;56.43;101511.84;4941858;28;45331;-63
2022/10/31 00:16:58;;;;;;;;;20.50;20.00;;;;;17.81;56.32;101506.53;4941477;28;45587;-63
2022/10/31 00:19:23;;;;;;;;;20.50;17.75;;;;;17.78;56.17;101509.25;4941532;28;46118;-63
2022/10/31 00:21:51;;;;;;;;;19.75;16.75;;;;;17.74;56.57;101510.28;4941837;28;45439;-63
2022/10/31 00:24:17;;;;;;;;;23.25;19.75;;;;;17.73;56.77;101510.34;4941500;28;45179;-63
2022/10/31 00:26:42;;;;;;;;;23.75;20.50;;;;;17.71;56.43;101510.41;4941258;28;48182;-63
2022/10/31 00:29:07;;;;;;;;;24.50;23.25;;;;;17.70;56.26;101513.97;4941347;28;45986;-64
2022/10/31 00:31:33;;;;;;;;;21.50;20.50;;;;;17.67;56.61;101514.94;4941678;28;45310;-63
2022/10/31 00:33:58;;;;;;;;;25.75;20.50;;;;;17.63;56.24;101512.41;4941133;28;51416;-63
2022/10/31 00:36:23;;;;;;;;;21.00;15.00;;;;;17.59;56.51;101506.31;4941663;28;45311;-63
2022/10/31 00:38:49;;;;;;;;;25.25;22.50;;;;;17.61;56.49;101515.13;4941073;28;46092;-64
2022/10/31 00:41:17;;;;;;;;;20.50;20.25;;;;;17.60;56.58;101521.34;4941460;28;45224;-64
2022/10/31 00:43:43;;;;;;;;;23.25;22.00;;;;;17.57;56.43;101512.59;4943684;28;45345;-64
2022/10/31 00:46:10;;;;;;;;;23.00;21.50;;;;;17.58;56.73;101514.34;4944850;28;45485;-63
2022/10/31 00:48:35;;;;;;;;;19.75;17.75;;;;;17.55;56.63;101513.53;4944245;28;45411;-63
2022/10/31 00:51:00;;;;;;;;;23.75;22.00;;;;;17.54;56.59;101518.88;4943485;28;45261;-63
2022/10/31 00:53:26;;;;;;;;;21.00;19.75;;;;;17.51;56.70;101514.53;4944601;28;45405;-63
2022/10/31 00:55:51;;;;;;;;;24.75;20.50;;;;;17.48;56.75;101514.66;4944777;28;45420;-63
2022/10/31 00:58:16;;;;;;;;;20.25;20.25;;;;;17.46;56.74;101513.81;4943119;28;47301;-63
2022/10/31 01:00:42;;;;;;;;;25.00;22.75;;;;;17.43;56.49;101510.38;4943569;28;45237;-63
2022/10/31 01:03:07;;;;;;;;;26.50;24.25;;;;;17.42;56.60;101509.53;4944659;28;45296;-63
2022/10/31 01:05:32;;;;;;;;;24.25;21.75;;;;;17.40;56.67;101502.53;4944909;28;45324;-63
2022/10/31 01:07:58;;;;;;;;;20.50;20.50;;;;;17.37;56.75;101495.47;4944215;28;48239;-63
2022/10/31 01:10:24;;;;;;;;;22.75;20.00;;;;;17.36;56.63;101497.28;4944201;28;45291;-64
2022/10/31 01:12:49;;;;;;;;;26.50;22.50;;;;;17.35;56.70;101489.38;4944628;28;45610;-66
2022/10/31 01:15:19;;;;;;;;;22.00;19.50;;;;;17.33;56.79;101485.88;4944728;28;45439;-64
2022/10/31 01:17:44;;;;;;;;;20.75;18.50;;;;;17.31;56.87;101475.31;4944238;28;46519;-64
2022/10/31 01:20:11;;;;;;;;;19.25;19.25;;;;;17.30;56.67;101475.38;4942849;28;45915;-64
2022/10/31 01:22:36;;;;;;;;;26.00;22.00;;;;;17.29;56.78;101474.47;4944338;28;45175;-64
2022/10/31 01:25:02;;;;;;;;;19.75;18.25;;;;;17.29;56.80;101481.59;4943807;28;55391;-63
2022/10/31 01:27:27;;;;;;;;;22.00;18.75;;;;;17.26;56.76;101473.69;4944101;28;45506;-64
2022/10/31 01:29:52;;;;;;;;;19.00;18.25;;;;;17.25;56.81;101466.66;4944392;28;45301;-64
2022/10/31 01:32:18;;;;;;;;;23.25;20.00;;;;;17.24;56.95;101464.94;4944203;28;45484;-65
2022/10/31 01:34:43;;;;;;;;;24.75;23.50;;;;;17.24;56.96;101467.56;4944319;28;45230;-64
2022/10/31 01:37:08;;;;;;;;;14.50;14.50;;;;;17.21;56.69;101455.25;4942453;28;51179;-64
2022/10/31 01:39:34;;;;;;;;;25.25;21.00;;;;;17.23;57.01;101453.41;4943906;28;47277;-64
2022/10/31 01:41:59;;;;;;;;;26.75;20.00;;;;;17.21;57.10;101453.47;4944136;28;45541;-64
2022/10/31 01:44:24;;;;;;;;;22.25;20.00;;;;;17.21;56.98;101458.78;4931336;28;45397;-64
2022/10/31 01:47:13;;;;;;;;;20.75;20.75;;;;;17.19;56.97;101444.69;4943890;28;46739;-64
2022/10/31 01:50:13;;;;;;;;;21.75;19.50;;;;;17.18;56.89;101440.28;4943997;28;45426;-64
2022/10/31 01:52:47;;;;;;;;;15.75;15.75;;;;;17.18;57.07;101442.06;4932566;28;45356;-64
2022/10/31 01:55:20;;;;;;;;;22.50;20.00;;;;;17.18;57.01;101444.72;4942323;28;45163;-64
2022/10/31 01:57:51;;;;;;;;;21.00;21.00;;;;;17.17;57.28;101451.81;4943557;28;45664;-64
2022/10/31 02:00:18;;;;;;;;;19.00;17.00;;;;;17.17;57.14;101450.97;4943550;28;45314;-64
2022/10/31 02:02:45;;;;;;;;;21.75;18.25;;;;;17.13;57.43;101450.19;4943754;28;45323;-64
2022/10/31 02:05:16;;;;;;;;;21.25;18.00;;;;;17.16;57.12;101454.53;4943464;28;45471;-64
2022/10/31 02:08:15;;;;;;;;;21.00;19.50;;;;;17.15;57.13;101440.38;4943615;28;46210;-64
2022/10/31 02:10:42;;;;;;;;;18.00;15.75;;;;;17.14;57.14;101441.28;4943217;28;45330;-63
2022/10/31 02:13:09;;;;;;;;;20.25;16.75;;;;;17.11;57.34;101430.78;4942329;28;45265;-64
2022/10/31 02:15:36;;;;;;;;;18.75;17.25;;;;;17.14;57.20;101428.00;4943443;28;45303;-64
2022/10/31 02:18:03;;;;;;;;;20.00;18.25;;;;;17.14;57.23;101427.16;4942177;28;46263;-64
2022/10/31 02:20:36;;;;;;;;;22.50;21.75;;;;;17.14;57.30;101425.34;4943305;28;45380;-64
2022/10/31 02:23:25;;;;;;;;;22.75;22.25;;;;;17.13;57.17;101425.41;4943316;28;45362;-64
2022/10/31 02:26:12;;;;;;;;;22.25;18.25;;;;;17.11;57.34;101425.47;4943001;28;45239;-64
2022/10/31 02:28:49;;;;;;;;;18.75;18.75;;;;;17.11;57.56;101422.81;4943082;28;46859;-64
2022/10/31 02:31:17;;;;;;;;;25.25;21.00;;;;;17.11;57.17;101421.94;4943104;28;45188;-64
2022/10/31 02:33:50;;;;;;;;;20.00;16.50;;;;;17.09;57.49;101421.13;4943327;28;45548;-64
2022/10/31 02:36:57;;;;;;;;;24.50;19.25;;;;;17.11;57.36;101430.78;4943142;28;45373;-63
2022/10/31 02:39:35;;;;;;;;;24.00;21.00;;;;;17.11;57.20;101424.59;4942601;28;46229;-64
2022/10/31 02:42:22;;;;;;;;;30.25;28.00;;;;;17.11;57.59;101421.94;4942946;28;45215;-64
2022/10/31 02:45:10;;;;;;;;;26.75;22.00;;;;;17.06;57.68;101409.66;4943180;28;45557;-64
2022/10/31 02:47:41;;;;;;;;;20.50;18.75;;;;;17.10;57.46;101402.47;4942823;28;45295;-64
2022/10/31 02:50:17;;;;;;;;;23.25;22.00;;;;;17.10;57.51;101401.63;4942796;28;46397;-63
2022/10/31 02:52:42;;;;;;;;;23.25;21.25;;;;;17.09;57.84;101400.72;4942988;28;45224;-64
2022/10/31 02:55:32;;;;;;;;;25.25;21.00;;;;;17.06;57.59;101387.56;4942926;28;45223;-64
2022/10/31 02:58:21;;;;;;;;;23.75;20.75;;;;;17.10;57.51;101399.81;4942872;28;45432;-64
2022/10/31 03:01:13;;;;;;;;;26.25;23.50;;;;;17.12;57.54;101397.09;4932219;28;46146;-64
2022/10/31 03:04:14;;;;;;;;;25.25;21.75;;;;;17.12;57.84;101390.03;4942646;28;45272;-64
2022/10/31 03:07:19;;;;;;;;;17.00;16.00;;;;;17.11;57.43;101393.59;4942307;28;45188;-64
2022/10/31 03:09:51;;;;;;;;;32.00;26.75;;;;;17.12;57.78;101395.34;4942501;28;45450;-63
2022/10/31 03:12:29;;;;;;;;;25.50;22.50;;;;;17.12;57.62;101389.13;4942430;28;46241;-64
2022/10/31 03:15:00;;;;;;;;;26.00;25.25;;;;;17.11;57.49;101390.94;4942614;28;45598;-64
2022/10/31 03:17:35;;;;;;;;;21.25;21.25;;;;;17.13;57.69;101396.19;4935582;28;45247;-64
2022/10/31 03:20:04;;;;;;;;;26.75;23.25;;;;;17.13;57.58;101386.47;4942548;28;45310;-64
2022/10/31 03:22:32;;;;;;;;;23.00;21.00;;;;;17.10;57.77;101377.72;4942207;28;48072;-64
2022/10/31 03:25:01;;;;;;;;;29.25;25.75;;;;;17.14;57.54;101387.31;4940982;28;45694;-64
2022/10/31 03:27:30;;;;;;;;;25.50;21.75;;;;;17.14;57.77;101387.31;4942258;28;45371;-64
2022/10/31 03:30:00;;;;;;;;;18.50;16.50;;;;;17.13;57.56;101391.78;4942362;28;45412;-64
2022/10/31 03:32:30;;;;;;;;;23.75;21.00;;;;;17.14;57.85;101385.50;4942374;28;45416;-64
2022/10/31 03:34:59;;;;;;;;;21.75;19.25;;;;;17.12;57.79;101371.44;4942421;28;45464;-64
2022/10/31 03:37:27;;;;;;;;;20.50;19.00;;;;;17.14;57.86;101363.41;4942223;28;45339;-64
2022/10/31 03:39:55;;;;;;;;;22.00;18.75;;;;;17.14;57.82;101363.41;4942137;28;45333;-64
2022/10/31 03:42:25;;;;;;;;;16.50;16.50;;;;;17.13;57.81;101362.56;4940735;28;46243;-64
2022/10/31 03:45:15;;;;;;;;;17.25;16.75;;;;;17.13;57.89;101362.56;4942215;28;45247;-64
2022/10/31 03:47:43;;;;;;;;;20.00;18.75;;;;;17.10;57.90;101354.69;4942075;28;45378;-64
2022/10/31 03:50:11;;;;;;;;;23.75;22.25;;;;;17.12;57.95;101365.25;4940624;28;45470;-64
2022/10/31 03:52:47;;;;;;;;;22.50;19.50;;;;;17.11;58.06;101358.22;4942121;28;46228;-64
2022/10/31 03:55:15;;;;;;;;;22.50;19.75;;;;;17.11;57.99;101360.88;4941755;28;45231;-64
2022/10/31 03:57:52;;;;;;;;;19.75;17.75;;;;;17.10;57.79;101353.81;4942118;28;45589;-64
2022/10/31 04:00:18;;;;;;;;;29.00;21.00;;;;;17.10;57.79;101353.81;4941743;28;45464;-64
2022/10/31 04:02:59;;;;;;;;;20.25;17.75;;;;;17.10;57.81;101352.03;4942074;28;45402;-64
2022/10/31 04:05:25;;;;;;;;;20.00;18.50;;;;;17.09;58.08;101344.97;4941854;28;45239;-64
2022/10/31 04:07:55;;;;;;;;;24.00;21.00;;;;;17.09;58.04;101347.63;4940637;28;45500;-65
2022/10/31 04:10:22;;;;;;;;;19.00;17.25;;;;;17.09;58.03;101342.31;4940588;28;45430;-64
2022/10/31 04:12:54;;;;;;;;;23.00;21.25;;;;;17.05;57.81;101330.06;4941518;28;46185;-64
2022/10/31 04:15:22;;;;;;;;;19.25;17.25;;;;;17.07;58.04;101341.50;4941662;28;45307;-64
2022/10/31 04:17:53;;;;;;;;;20.75;17.00;;;;;17.06;58.02;101340.63;4940965;28;45243;-64
2022/10/31 04:20:18;;;;;;;;;17.75;16.25;;;;;17.05;58.03;101333.56;4941779;28;45449;-64
2022/10/31 04:22:44;;;;;;;;;23.25;21.50;;;;;17.05;57.92;101336.22;4941468;28;45872;-64
2022/10/31 04:25:09;;;;;;;;;18.75;17.75;;;;;17.05;57.83;101335.38;4941513;28;45279;-64
2022/10/31 04:27:34;;;;;;;;;19.25;18.00;;;;;17.02;58.07;101333.69;4941512;28;45370;-65
2022/10/31 04:30:00;;;;;;;;;22.75;19.25;;;;;17.02;57.93;101331.03;4941434;28;48873;-64
2022/10/31 04:32:25;;;;;;;;;17.75;15.75;;;;;17.03;58.08;101334.53;4941656;28;46212;-64
2022/10/31 04:34:51;;;;;;;;;23.50;21.00;;;;;17.01;58.02;101334.59;4941691;28;45255;-64
2022/10/31 04:37:16;;;;;;;;;21.50;18.25;;;;;17.02;57.91;101332.81;4941664;28;45234;-64
2022/10/31 04:39:41;;;;;;;;;25.75;21.50;;;;;17.02;58.47;101338.13;4941154;28;50675;-64
2022/10/31 04:42:07;;;;;;;;;20.75;18.50;;;;;17.02;58.16;101335.47;4941365;28;45181;-64
2022/10/31 04:44:32;;;;;;;;;23.75;21.50;;;;;17.01;58.09;101325.78;4941575;28;45737;-64
2022/10/31 04:46:57;;;;;;;;;28.00;27.25;;;;;17.00;58.13;101326.69;4940912;28;46971;-64
2022/10/31 04:49:22;;;;;;;;;27.50;26.75;;;;;16.98;57.95;101318.78;4941246;28;49198;-64
2022/10/31 04:51:48;;;;;;;;;26.75;26.50;;;;;16.98;58.44;101318.78;4941337;28;45308;-64
2022/10/31 04:54:13;;;;;;;;;29.00;24.00;;;;;16.98;58.10;101302.84;4941223;28;45243;-64
2022/10/31 04:56:38;;;;;;;;;26.50;24.00;;;;;16.95;58.06;101297.63;4940941;28;47220;-64
2022/10/31 04:59:04;;;;;;;;;21.75;20.75;;;;;16.98;58.28;101296.66;4941298;28;46440;-64
2022/10/31 05:01:29;;;;;;;;;25.75;20.50;;;;;16.97;58.45;101295.78;4941100;28;48942;-64
2022/10/31 05:03:54;;;;;;;;;23.75;19.00;;;;;16.97;58.18;101301.09;4941392;28;45220;-64
2022/10/31 05:06:20;;;;;;;;;84.67;72.33;;;;;16.97;58.24;101301.09;4941335;28;45208;-64
2022/10/31 05:08:45;;;;;;;;;25.50;23.25;;;;;16.99;58.28;101293.09;4940799;28;45266;-64
2022/10/31 05:11:10;;;;;;;;;25.50;24.50;;;;;16.97;58.19;101282.53;4940887;28;53400;-64
2022/10/31 05:13:36;;;;;;;;;15.25;14.50;;;;;16.98;58.45;101278.06;4941144;28;45350;-64
2022/10/31 05:16:01;;;;;;;;;17.50;17.50;;;;;16.98;58.22;101275.41;4941183;28;45267;-64
2022/10/31 05:18:26;;;;;;;;;24.00;20.25;;;;;16.97;58.33;101250.66;4940953;28;45395;-64
2022/10/31 05:20:52;;;;;;;;;20.25;17.75;;;;;16.96;58.58;101253.38;4940766;28;46243;-64
2022/10/31 05:23:17;;;;;;;;;22.75;18.00;;;;;16.97;58.35;101253.31;4940692;28;49115;-64
2022/10/31 05:25:42;;;;;;;;;16.75;14.25;;;;;16.97;58.41;101257.78;4940909;28;45539;-64
2022/10/31 05:28:08;;;;;;;;;18.00;16.25;;;;;16.95;58.54;101271.06;4940863;28;45584;-64
2022/10/31 05:30:34;;;;;;;;;20.25;16.50;;;;;16.97;58.21;101276.34;4944055;28;46218;-64
2022/10/31 05:33:00;;;;;;;;;12.75;12.75;;;;;16.96;58.32;101277.28;4944155;28;45463;-64
2022/10/31 05:35:31;;;;;;;;;17.50;14.75;;;;;16.95;58.33;101276.38;4944118;28;45239;-64
2022/10/31 05:37:57;;;;;;;;;18.25;16.75;;;;;16.96;58.59;101266.66;4943990;28;45429;-64
2022/10/31 05:40:23;;;;;;;;;16.25;16.00;;;;;16.95;58.52;101264.91;4943563;28;46607;-64
2022/10/31 05:42:51;;;;;;;;;19.75;15.00;;;;;16.95;58.52;101264.91;4944019;28;45252;-64
2022/10/31 05:45:18;;;;;;;;;14.75;14.75;;;;;16.96;58.49;101266.66;4944077;28;45248;-64
2022/10/31 05:47:54;;;;;;;;;17.50;15.50;;;;;16.96;58.58;101261.34;4943886;28;45372;-64
2022/10/31 05:50:20;;;;;;;;;18.00;16.50;;;;;16.93;58.58;101257.00;4943686;28;45312;-64
2022/10/31 05:52:46;;;;;;;;;15.75;15.25;;;;;16.94;58.43;101252.56;4943841;28;45502;-64
2022/10/31 05:55:11;;;;;;;;;16.50;14.50;;;;;16.93;58.77;101245.50;4943637;28;45725;-64
2022/10/31 05:57:36;;;;;;;;;13.00;12.75;;;;;16.93;58.63;101238.44;4942373;28;45323;-64
2022/10/31 06:00:04;;;;;;;;;15.75;13.50;;;;;16.93;58.44;101232.22;4943608;28;48263;-64
2022/10/31 06:02:34;;;;;;;;;17.00;15.50;;;;;16.90;58.46;101226.09;4943740;28;45365;-64
2022/10/31 06:04:59;;;;;;;;;15.00;13.75;;;;;16.90;58.65;101226.09;4943875;28;45231;-64
2022/10/31 06:07:25;;;;;;;;;13.75;12.50;;;;;16.92;58.83;101225.19;4943580;28;45244;-64
2022/10/31 06:09:50;;;;;;;;;17.00;17.00;;;;;16.91;58.66;101226.97;4943358;28;48094;-64
2022/10/31 06:12:15;;;;;;;;;17.00;14.00;;;;;16.92;58.62;101234.03;4943422;28;47571;-64
2022/10/31 06:14:41;;;;;;;;;14.50;11.00;;;;;16.89;58.44;101229.66;4943500;28;45304;-64
2022/10/31 06:17:06;;;;;;;;;12.50;11.50;;;;;16.94;58.79;101231.31;4943330;28;46736;-64
2022/10/31 06:19:31;;;;;;;;;14.00;12.50;;;;;16.94;58.44;101223.34;4943384;28;45250;-64
2022/10/31 06:21:57;;;;;;;;;18.00;14.75;;;;;16.94;58.55;101218.03;4943890;28;45314;-64
2022/10/31 06:24:22;;;;;;;;;14.75;14.75;;;;;16.94;58.72;101228.66;4941773;28;51600;-64
2022/10/31 06:26:47;;;;;;;;;13.25;12.25;;;;;16.95;58.43;101222.44;4943394;28;45372;-64
2022/10/31 06:29:13;;;;;;;;;15.75;15.75;;;;;16.94;58.59;101226.00;4943328;28;45402;-64
2022/10/31 06:31:38;;;;;;;;;12.25;12.00;;;;;16.94;58.55;101221.56;4943383;28;45298;-64
2022/10/31 06:34:03;;;;;;;;;20.25;15.75;;;;;16.93;58.57;101216.31;4943505;28;45452;-64
2022/10/31 06:36:28;;;;;;;;;15.50;13.50;;;;;16.95;58.65;101211.81;4943207;28;45441;-64
2022/10/31 06:38:54;;;;;;;;;17.00;15.00;;;;;16.95;58.54;101215.31;4943176;28;45337;-65
2022/10/31 06:41:19;;;;;;;;;14.25;13.00;;;;;16.95;58.50;101212.69;4942715;28;45338;-64
2022/10/31 06:43:47;;;;;;;;;14.75;11.25;;;;;16.95;58.61;101217.97;4943344;28;45283;-64
2022/10/31 06:46:13;;;;;;;;;13.75;13.75;;;;;16.95;58.73;101212.69;4943244;28;45282;-64
2022/10/31 06:48:40;;;;;;;;;13.75;13.75;;;;;16.95;58.57;101215.31;4942711;28;45469;-64
2022/10/31 06:51:06;;;;;;;;;12.00;10.50;;;;;16.97;58.57;101210.00;4943107;28;45370;-64
2022/10/31 06:53:31;;;;;;;;;13.00;13.00;;;;;16.97;58.55;101199.38;4942903;28;45858;-64
2022/10/31 06:55:56;;;;;;;;;13.75;13.75;;;;;16.97;58.53;101192.25;4942842;28;45376;-64
2022/10/31 06:58:22;;;;;;;;;14.00;10.25;;;;;16.96;58.73;101189.66;4942671;28;46359;-64
2022/10/31 07:00:47;;;;;;;;;13.50;11.50;;;;;16.97;58.81;101189.63;4943044;28;45306;-64
2022/10/31 07:03:15;;;;;;;;;16.50;13.75;;;;;16.97;58.77;101194.06;4942895;28;45314;-64
2022/10/31 07:05:41;;;;;;;;;12.25;11.00;;;;;16.98;58.68;101199.31;4942894;28;45476;-64
2022/10/31 07:08:08;;;;;;;;;12.50;12.50;;;;;16.99;58.90;101200.16;4942273;28;46165;-64
2022/10/31 07:10:36;;;;;;;;;11.50;11.50;;;;;17.01;58.52;101199.19;4942907;28;45433;-64
2022/10/31 07:13:04;;;;;;;;;12.75;11.00;;;;;17.00;58.69;101199.25;4942708;28;45366;-64
2022/10/31 07:15:34;;;;;;;;;20.50;17.75;;;;;17.03;58.85;101202.69;4942855;28;45251;-64
2022/10/31 07:18:03;;;;;;;;;16.00;12.00;;;;;17.04;58.58;101198.22;4942465;28;47329;-64
2022/10/31 07:20:30;;;;;;;;;15.25;13.00;;;;;17.04;58.85;101195.56;4942496;28;45389;-64
2022/10/31 07:22:55;;;;;;;;;26.75;23.00;;;;;17.03;58.44;101199.13;4942542;28;45390;-65
2022/10/31 07:25:21;;;;;;;;;27.50;23.75;;;;;17.06;58.74;101201.72;4942091;28;49650;-64
2022/10/31 07:27:46;;;;;;;;;16.75;15.00;;;;;17.06;58.75;101196.41;4942187;28;45291;-64
2022/10/31 07:30:13;;;;;;;;;14.00;12.50;;;;;17.05;58.73;101197.31;4942524;28;45268;-64
2022/10/31 07:32:46;;;;;;;;;17.00;16.00;;;;;17.09;58.80;101193.63;4941295;28;45365;-64
2022/10/31 07:35:14;;;;;;;;;38.75;34.50;;;;;17.10;58.84;101200.66;4942471;28;45245;-64
2022/10/31 07:37:39;;;;;;;;;17.75;16.75;;;;;17.06;58.45;101189.28;4942180;28;46395;-64
2022/10/31 07:40:06;;;;;;;;;14.50;12.25;;;;;17.11;58.68;101190.94;4942057;28;45227;-64
2022/10/31 07:42:39;;;;;;;;;16.00;14.00;;;;;17.13;58.92;101199.69;4942269;28;45375;-64
2022/10/31 07:45:07;;;;;;;;;17.50;14.50;;;;;17.13;58.82;101191.72;4942154;28;45462;-64
2022/10/31 07:47:58;;;;;;;;;20.50;16.25;;;;;17.14;58.98;101191.66;4941973;28;47552;-64
2022/10/31 07:50:27;;;;;;;;;17.50;13.50;;;;;17.14;58.98;101191.66;4940971;28;45319;-64
2022/10/31 07:52:59;;;;;;;;;17.75;16.75;;;;;17.16;58.98;101194.31;4941223;28;45397;-64
2022/10/31 07:55:24;;;;;;;;;16.25;14.25;;;;;17.16;58.79;101184.53;4941835;28;45457;-65
2022/10/31 07:58:05;;;;;;;;;17.75;16.00;;;;;17.18;59.19;101188.00;4941437;28;53665;-64
2022/10/31 08:00:32;;;;;;;;;20.00;16.25;;;;;17.18;58.97;101182.69;4942155;28;45231;-64
2022/10/31 08:03:02;;;;;;;;;23.50;20.00;;;;;17.19;59.11;101184.44;4942026;28;45239;-63
2022/10/31 08:05:28;;;;;;;;;19.25;17.50;;;;;17.21;59.11;101192.34;4941906;28;45308;-63
2022/10/31 08:07:54;;;;;;;;;16.50;15.00;;;;;17.21;59.06;101179.06;4941638;28;46989;-63
2022/10/31 08:10:20;;;;;;;;;21.00;20.00;;;;;17.21;58.97;101176.41;4941536;28;45313;-63
2022/10/31 08:12:45;;;;;;;;;22.75;17.25;;;;;17.21;59.02;101177.28;4941927;28;45247;-64
2022/10/31 08:15:11;;;;;;;;;15.75;15.00;;;;;17.19;59.19;101165.84;4941688;28;45649;-64
2022/10/31 08:17:37;;;;;;;;;24.00;21.25;;;;;17.21;59.25;101173.75;4941579;28;46318;-64
2022/10/31 08:20:04;;;;;;;;;19.75;18.50;;;;;17.23;59.23;101177.22;4941729;28;45362;-64
2022/10/31 08:22:30;;;;;;;;;24.00;20.25;;;;;17.25;59.31;101174.53;4940399;28;45280;-64
2022/10/31 08:24:55;;;;;;;;;30.25;25.75;;;;;17.26;59.30;101174.47;4941534;28;45315;-65
2022/10/31 08:27:20;;;;;;;;;33.00;29.25;;;;;17.26;59.31;101163.84;4940019;28;51278;-64
2022/10/31 08:29:45;;;;;;;;;25.00;21.25;;;;;17.28;59.21;101175.28;4941702;28;45362;-64
2022/10/31 08:32:11;;;;;;;;;23.50;22.75;;;;;17.29;59.06;101165.50;4941768;28;45319;-63
2022/10/31 08:34:36;;;;;;;;;23.75;22.00;;;;;17.31;59.34;101166.34;4941743;28;45310;-63
2022/10/31 08:37:01;;;;;;;;;26.75;23.50;;;;;17.32;59.48;101153.00;4941338;28;46286;-64
2022/10/31 08:39:27;;;;;;;;;22.75;19.50;;;;;17.32;59.32;101137.06;4941366;28;45318;-63
2022/10/31 08:41:52;;;;;;;;;26.00;21.50;;;;;17.35;59.38;101144.06;4941484;28;45445;-64
2022/10/31 08:44:17;;;;;;;;;23.75;21.75;;;;;17.36;59.41;101140.47;4941565;28;45488;-64
2022/10/31 08:46:43;;;;;;;;;25.00;23.75;;;;;17.37;59.51;101134.22;4941258;28;46913;-63
2022/10/31 08:49:08;;;;;;;;;26.75;24.00;;;;;17.37;59.44;101120.94;4941278;28;45246;-63
2022/10/31 08:51:33;;;;;;;;;23.50;22.00;;;;;17.39;59.55;101119.09;4941791;28;45421;-64
2022/10/31 08:53:58;;;;;;;;;27.00;24.00;;;;;17.38;59.57;101112.06;4941153;28;45643;-65
2022/10/31 08:56:24;;;;;;;;;24.50;22.25;;;;;17.43;59.42;101126.03;4939695;28;46655;-65
2022/10/31 08:58:50;;;;;;;;;25.25;24.00;;;;;17.43;59.71;101118.06;4941214;28;45270;-65
2022/10/31 09:01:16;;;;;;;;;25.00;22.50;;;;;17.47;59.48;101114.38;4941564;28;45321;-65
2022/10/31 09:03:41;;;;;;;;;27.50;23.50;;;;;17.48;59.50;101108.16;4941817;28;45410;-65
2022/10/31 09:06:08;;;;;;;;;27.25;22.75;;;;;17.51;59.43;101101.84;4944557;28;46199;-65
2022/10/31 09:08:34;;;;;;;;;29.25;24.00;;;;;17.54;59.52;101094.59;4943233;28;45370;-65
2022/10/31 09:11:00;;;;;;;;;27.00;25.25;;;;;17.57;59.33;101083.00;4944521;28;45303;-65
2022/10/31 09:13:26;;;;;;;;;24.25;23.75;;;;;17.59;59.60;101089.13;4944281;28;45427;-65
2022/10/31 09:15:52;;;;;;;;;27.50;23.75;;;;;17.61;59.59;101079.31;4944314;28;46173;-65
2022/10/31 09:18:20;;;;;;;;;28.00;24.25;;;;;17.63;59.74;101071.28;4942993;28;45394;-65
2022/10/31 09:20:48;;;;;;;;;31.00;28.00;;;;;17.65;59.40;101064.13;4944309;28;45320;-64
2022/10/31 09:23:16;;;;;;;;;34.50;26.75;;;;;17.67;59.71;101068.47;4944004;28;45374;-65
2022/10/31 09:25:42;;;;;;;;;24.25;22.75;;;;;17.70;59.76;101065.66;4944068;28;45365;-65
2022/10/31 09:28:11;;;;;;;;;26.50;24.75;;;;;17.73;59.51;101064.69;4944039;28;45371;-65
2022/10/31 09:30:36;;;;;;;;;30.50;23.25;;;;;17.77;59.65;101060.13;4942920;28;45413;-65
2022/10/31 09:33:05;;;;;;;;;27.50;26.00;;;;;17.79;59.65;101056.47;4944304;28;45457;-65
2022/10/31 09:35:30;;;;;;;;;27.25;24.00;;;;;17.82;59.90;101048.38;4944011;28;45436;-65
2022/10/31 09:37:57;;;;;;;;;31.50;28.75;;;;;17.87;59.65;101053.50;4943745;28;45267;-65
2022/10/31 09:40:27;;;;;;;;;30.00;27.00;;;;;17.92;59.64;101050.66;4944075;28;45309;-66
2022/10/31 09:43:14;;;;;;;;;28.50;27.00;;;;;17.96;59.62;101034.56;4943887;28;45310;-65
2022/10/31 09:46:13;;;;;;;;;28.75;27.25;;;;;18.05;59.69;101035.13;4943737;28;45218;-65
2022/10/31 09:49:03;;;;;;;;;27.25;24.25;;;;;18.11;59.78;101033.09;4943664;28;45549;-65
2022/10/31 09:51:40;;;;;;;;;28.50;26.25;;;;;18.17;59.37;101016.84;4944201;28;45306;-65
2022/10/31 09:54:25;;;;;;;;;27.25;23.50;;;;;18.25;59.58;101007.69;4943468;28;45512;-65
2022/10/31 09:56:51;;;;;;;;;29.75;25.00;;;;;18.33;59.64;101008.25;4943505;28;46394;-65
2022/10/31 09:59:37;;;;;;;;;20.75;19.50;;;;;18.42;59.84;101013.16;4943864;28;45401;-65
2022/10/31 10:02:12;;;;;;;;;26.00;20.25;;;;;18.51;59.49;101014.56;4943754;28;45382;-65
2022/10/31 10:04:48;;;;;;;;;26.00;23.25;;;;;18.63;59.43;101014.03;4943559;28;45321;-65
2022/10/31 10:07:27;;;;;;;;;21.25;19.00;;;;;18.74;59.60;101010.91;4943443;28;46330;-65
2022/10/31 10:09:53;;;;;;;;;19.25;18.50;;;;;18.82;59.66;100992.78;4943200;28;45219;-65
2022/10/31 10:12:42;;;;;;;;;22.25;21.25;;;;;18.89;59.35;100982.72;4943569;28;45317;-65
2022/10/31 10:15:29;;;;;;;;;21.75;18.00;;;;;19.01;59.39;100981.34;4942801;28;45239;-65
2022/10/31 10:18:16;;;;;;;;;16.25;15.00;;;;;19.07;59.52;100975.75;4943446;28;46158;-65
2022/10/31 10:20:50;;;;;;;;;19.50;17.75;;;;;19.17;59.15;100978.84;4943393;28;45312;-65
2022/10/31 10:23:55;;;;;;;;;18.00;17.25;;;;;19.27;59.02;100968.59;4943250;28;45535;-65
2022/10/31 10:26:25;;;;;;;;;20.75;14.75;;;;;19.37;59.04;100966.38;4943095;28;45343;-65
2022/10/31 10:28:57;;;;;;;;;25.75;17.50;;;;;19.47;59.08;100965.88;4943139;28;46350;-65
2022/10/31 10:31:32;;;;;;;;;15.75;14.00;;;;;19.57;59.03;100949.41;4943061;28;45382;-64
2022/10/31 10:34:07;;;;;;;;;18.25;16.25;;;;;19.65;59.10;100958.78;4943223;28;45255;-64
2022/10/31 10:36:34;;;;;;;;;17.75;13.25;;;;;19.74;58.95;100951.28;4943131;28;45500;-65
2022/10/31 10:39:05;;;;;;;;;25.75;19.25;;;;;19.83;59.12;100942.84;4942720;28;47352;-65
2022/10/31 10:41:32;;;;;;;;;17.50;17.50;;;;;19.93;58.15;100932.59;4943097;28;45460;-65
2022/10/31 10:43:57;;;;;;;;;16.50;15.50;;;;;20.06;58.87;100925.69;4943139;28;45243;-65
2022/10/31 10:49:51;;;;;;;;;17.25;17.25;;;;;20.33;58.23;100905.69;4943113;28;45426;-65
2022/10/31 10:52:35;;;;;;;;;14.25;13.75;;;;;20.50;58.00;100907.44;4941735;28;45349;-65
2022/10/31 10:55:15;;;;;;;;;18.75;14.75;;;;;20.61;58.33;100900.56;4942893;28;45497;-65
2022/10/31 10:57:46;;;;;;;;;15.00;14.00;;;;;20.77;57.90;100895.28;4942690;28;45355;-65
2022/10/31 11:00:19;;;;;;;;;15.25;14.75;;;;;20.92;58.29;100887.41;4942737;28;45349;-65
2022/10/31 11:02:45;;;;;;;;;13.75;13.25;;;;;21.03;57.62;100879.66;4942803;28;45259;-65
2022/10/31 11:05:20;;;;;;;;;20.00;16.75;;;;;21.16;57.58;100868.28;4942762;28;45207;-65
2022/10/31 11:07:45;;;;;;;;;18.00;15.75;;;;;21.33;57.92;100884.19;4942957;28;45374;-65
2022/10/31 11:10:15;;;;;;;;;16.50;13.50;;;;;21.45;57.45;100895.16;4942229;28;46169;-65
2022/10/31 11:12:43;;;;;;;;;19.50;16.75;;;;;21.55;57.82;100899.00;4942475;28;45355;-65
2022/10/31 11:15:20;;;;;;;;;16.75;16.00;;;;;21.64;57.39;100890.47;4941388;28;45266;-65
2022/10/31 11:17:49;;;;;;;;;14.00;13.00;;;;;21.72;56.60;100877.53;4942454;28;45380;-64
2022/10/31 11:20:14;;;;;;;;;15.00;13.50;;;;;21.82;57.30;100869.78;4942255;28;46176;-64
2022/10/31 11:22:45;;;;;;;;;22.00;14.00;;;;;21.88;56.72;100864.09;4942258;28;45467;-64